sensor_id;sensor_type;location;lat;lon;timestamp;P1;durP1;ratioP1;P2;durP2;ratioP2
8871;SDS011;4472;52.092;9.820;2024-01-07T00:02:37;15.83;;;10.13;;
8871;SDS011;4472;52.092;9.820;2024-01-07T00:05:26;20.00;;;11.27;;
8871;SDS011;4472;52.092;9.820;2024-01-07T00:08:14;18.33;;;10.43;;
8871;SDS011;4472;52.092;9.820;2024-01-07T00:11:03;16.77;;;9.77;;
8871;SDS011;4472;52.092;9.820;2024-01-07T00:13:50;16.53;;;11.00;;
8871;SDS011;4472;52.092;9.820;2024-01-07T00:16:39;18.67;;;10.80;;
8871;SDS011;4472;52.092;9.820;2024-01-07T00:19:29;18.17;;;10.20;;
8871;SDS011;4472;52.092;9.820;2024-01-07T00:22:23;16.73;;;9.57;;
8871;SDS011;4472;52.092;9.820;2024-01-07T00:25:13;15.47;;;9.53;;
8871;SDS011;4472;52.092;9.820;2024-01-07T00:28:04;16.10;;;8.20;;
8871;SDS011;4472;52.092;9.820;2024-01-07T00:30:54;17.33;;;10.27;;
8871;SDS011;4472;52.092;9.820;2024-01-07T00:33:43;17.70;;;10.70;;
8871;SDS011;4472;52.092;9.820;2024-01-07T00:36:34;17.93;;;10.63;;
8871;SDS011;4472;52.092;9.820;2024-01-07T00:39:27;17.50;;;10.67;;
8871;SDS011;4472;52.092;9.820;2024-01-07T00:42:17;17.63;;;11.07;;
8871;SDS011;4472;52.092;9.820;2024-01-07T00:45:07;17.37;;;10.03;;
8871;SDS011;4472;52.092;9.820;2024-01-07T00:47:56;18.53;;;10.13;;
8871;SDS011;4472;52.092;9.820;2024-01-07T00:50:46;19.57;;;10.70;;
8871;SDS011;4472;52.092;9.820;2024-01-07T00:53:36;16.00;;;9.10;;
8871;SDS011;4472;52.092;9.820;2024-01-07T00:56:27;15.00;;;10.03;;
8871;SDS011;4472;52.092;9.820;2024-01-07T00:59:18;14.27;;;9.43;;
8871;SDS011;4472;52.092;9.820;2024-01-07T01:02:07;16.53;;;10.27;;
8871;SDS011;4472;52.092;9.820;2024-01-07T01:04:54;15.10;;;9.47;;
8871;SDS011;4472;52.092;9.820;2024-01-07T01:07:43;13.90;;;9.27;;
8871;SDS011;4472;52.092;9.820;2024-01-07T01:10:32;15.83;;;9.33;;
8871;SDS011;4472;52.092;9.820;2024-01-07T01:13:24;16.13;;;10.00;;
8871;SDS011;4472;52.092;9.820;2024-01-07T01:16:12;13.10;;;9.20;;
8871;SDS011;4472;52.092;9.820;2024-01-07T01:19:02;16.27;;;9.33;;
8871;SDS011;4472;52.092;9.820;2024-01-07T01:21:52;15.63;;;10.00;;
8871;SDS011;4472;52.092;9.820;2024-01-07T01:24:41;13.87;;;9.40;;
8871;SDS011;4472;52.092;9.820;2024-01-07T01:27:29;13.63;;;9.23;;
8871;SDS011;4472;52.092;9.820;2024-01-07T01:30:19;13.93;;;9.70;;
8871;SDS011;4472;52.092;9.820;2024-01-07T01:33:08;17.23;;;10.03;;
8871;SDS011;4472;52.092;9.820;2024-01-07T01:35:58;17.03;;;10.70;;
8871;SDS011;4472;52.092;9.820;2024-01-07T01:38:52;16.33;;;9.27;;
8871;SDS011;4472;52.092;9.820;2024-01-07T01:41:42;14.90;;;9.73;;
8871;SDS011;4472;52.092;9.820;2024-01-07T01:44:31;12.77;;;9.40;;
8871;SDS011;4472;52.092;9.820;2024-01-07T01:47:23;19.97;;;9.60;;
8871;SDS011;4472;52.092;9.820;2024-01-07T01:50:13;14.47;;;9.40;;
8871;SDS011;4472;52.092;9.820;2024-01-07T01:53:02;15.50;;;9.87;;
8871;SDS011;4472;52.092;9.820;2024-01-07T01:55:52;18.47;;;10.80;;
8871;SDS011;4472;52.092;9.820;2024-01-07T01:58:43;16.40;;;10.80;;
8871;SDS011;4472;52.092;9.820;2024-01-07T02:01:34;16.53;;;10.07;;
8871;SDS011;4472;52.092;9.820;2024-01-07T02:04:24;14.77;;;9.87;;
8871;SDS011;4472;52.092;9.820;2024-01-07T02:07:13;14.17;;;9.87;;
8871;SDS011;4472;52.092;9.820;2024-01-07T02:10:03;16.53;;;10.20;;
8871;SDS011;4472;52.092;9.820;2024-01-07T02:12:54;14.33;;;8.10;;
8871;SDS011;4472;52.092;9.820;2024-01-07T02:15:45;18.80;;;10.77;;
8871;SDS011;4472;52.092;9.820;2024-01-07T02:18:35;15.73;;;10.20;;
8871;SDS011;4472;52.092;9.820;2024-01-07T02:21:24;17.13;;;8.57;;
8871;SDS011;4472;52.092;9.820;2024-01-07T02:24:17;18.17;;;10.70;;
8871;SDS011;4472;52.092;9.820;2024-01-07T02:27:07;18.23;;;10.77;;
8871;SDS011;4472;52.092;9.820;2024-01-07T02:30:00;15.07;;;9.60;;
8871;SDS011;4472;52.092;9.820;2024-01-07T02:32:47;11.93;;;7.13;;
8871;SDS011;4472;52.092;9.820;2024-01-07T02:35:36;16.57;;;9.47;;
8871;SDS011;4472;52.092;9.820;2024-01-07T02:38:29;17.10;;;9.73;;
8871;SDS011;4472;52.092;9.820;2024-01-07T02:41:21;15.17;;;9.40;;
8871;SDS011;4472;52.092;9.820;2024-01-07T02:44:13;13.97;;;8.93;;
8871;SDS011;4472;52.092;9.820;2024-01-07T02:47:01;13.40;;;8.60;;
8871;SDS011;4472;52.092;9.820;2024-01-07T02:49:49;16.53;;;9.30;;
8871;SDS011;4472;52.092;9.820;2024-01-07T02:52:38;13.70;;;8.47;;
8871;SDS011;4472;52.092;9.820;2024-01-07T02:55:28;12.40;;;8.63;;
8871;SDS011;4472;52.092;9.820;2024-01-07T02:58:18;14.30;;;8.67;;
8871;SDS011;4472;52.092;9.820;2024-01-07T03:01:08;13.13;;;8.37;;
8871;SDS011;4472;52.092;9.820;2024-01-07T03:03:56;13.23;;;7.60;;
8871;SDS011;4472;52.092;9.820;2024-01-07T03:06:43;12.23;;;6.80;;
8871;SDS011;4472;52.092;9.820;2024-01-07T03:09:31;10.37;;;6.70;;
8871;SDS011;4472;52.092;9.820;2024-01-07T03:12:20;12.70;;;7.60;;
8871;SDS011;4472;52.092;9.820;2024-01-07T03:15:10;10.73;;;6.97;;
8871;SDS011;4472;52.092;9.820;2024-01-07T03:17:59;9.03;;;6.60;;
8871;SDS011;4472;52.092;9.820;2024-01-07T03:20:48;12.43;;;6.73;;
8871;SDS011;4472;52.092;9.820;2024-01-07T03:23:36;10.93;;;6.87;;
8871;SDS011;4472;52.092;9.820;2024-01-07T03:26:24;10.63;;;6.93;;
8871;SDS011;4472;52.092;9.820;2024-01-07T03:29:18;11.97;;;7.43;;
8871;SDS011;4472;52.092;9.820;2024-01-07T03:32:08;11.20;;;6.47;;
8871;SDS011;4472;52.092;9.820;2024-01-07T03:34:57;10.50;;;7.10;;
8871;SDS011;4472;52.092;9.820;2024-01-07T03:37:48;12.20;;;6.83;;
8871;SDS011;4472;52.092;9.820;2024-01-07T03:40:36;9.70;;;7.13;;
8871;SDS011;4472;52.092;9.820;2024-01-07T03:43:25;10.40;;;6.83;;
8871;SDS011;4472;52.092;9.820;2024-01-07T03:46:14;10.50;;;6.93;;
8871;SDS011;4472;52.092;9.820;2024-01-07T03:49:05;9.97;;;7.00;;
8871;SDS011;4472;52.092;9.820;2024-01-07T03:51:54;9.87;;;6.67;;
8871;SDS011;4472;52.092;9.820;2024-01-07T03:54:45;8.50;;;6.00;;
8871;SDS011;4472;52.092;9.820;2024-01-07T03:57:36;9.10;;;5.97;;
8871;SDS011;4472;52.092;9.820;2024-01-07T04:00:26;8.57;;;6.27;;
8871;SDS011;4472;52.092;9.820;2024-01-07T04:03:16;10.67;;;6.53;;
8871;SDS011;4472;52.092;9.820;2024-01-07T04:06:09;10.33;;;5.87;;
8871;SDS011;4472;52.092;9.820;2024-01-07T04:08:57;8.23;;;6.13;;
8871;SDS011;4472;52.092;9.820;2024-01-07T04:11:45;10.33;;;6.00;;
8871;SDS011;4472;52.092;9.820;2024-01-07T04:14:33;8.23;;;5.33;;
8871;SDS011;4472;52.092;9.820;2024-01-07T04:17:23;8.83;;;5.73;;
8871;SDS011;4472;52.092;9.820;2024-01-07T04:20:13;8.70;;;5.60;;
8871;SDS011;4472;52.092;9.820;2024-01-07T04:23:04;8.43;;;5.83;;
8871;SDS011;4472;52.092;9.820;2024-01-07T04:25:52;9.10;;;6.47;;
8871;SDS011;4472;52.092;9.820;2024-01-07T04:28:44;9.87;;;5.70;;
8871;SDS011;4472;52.092;9.820;2024-01-07T04:31:37;8.07;;;6.03;;
8871;SDS011;4472;52.092;9.820;2024-01-07T04:34:26;7.97;;;6.03;;
8871;SDS011;4472;52.092;9.820;2024-01-07T04:37:14;9.30;;;5.90;;
8871;SDS011;4472;52.092;9.820;2024-01-07T04:40:06;10.13;;;6.37;;
8871;SDS011;4472;52.092;9.820;2024-01-07T04:42:56;8.23;;;5.57;;
8871;SDS011;4472;52.092;9.820;2024-01-07T04:45:46;10.33;;;6.03;;
8871;SDS011;4472;52.092;9.820;2024-01-07T04:48:36;10.30;;;5.93;;
8871;SDS011;4472;52.092;9.820;2024-01-07T04:51:26;7.73;;;4.70;;
8871;SDS011;4472;52.092;9.820;2024-01-07T04:54:16;7.90;;;5.50;;
8871;SDS011;4472;52.092;9.820;2024-01-07T04:57:07;6.73;;;4.83;;
8871;SDS011;4472;52.092;9.820;2024-01-07T04:59:56;8.07;;;4.90;;
8871;SDS011;4472;52.092;9.820;2024-01-07T05:02:44;8.27;;;5.00;;
8871;SDS011;4472;52.092;9.820;2024-01-07T05:05:33;5.90;;;4.47;;
8871;SDS011;4472;52.092;9.820;2024-01-07T05:08:23;6.30;;;4.80;;
8871;SDS011;4472;52.092;9.820;2024-01-07T05:11:12;7.97;;;4.87;;
8871;SDS011;4472;52.092;9.820;2024-01-07T05:14:04;5.00;;;4.17;;
8871;SDS011;4472;52.092;9.820;2024-01-07T05:16:52;7.90;;;4.77;;
8871;SDS011;4472;52.092;9.820;2024-01-07T05:19:42;5.33;;;4.53;;
8871;SDS011;4472;52.092;9.820;2024-01-07T05:22:32;5.40;;;4.53;;
8871;SDS011;4472;52.092;9.820;2024-01-07T05:25:20;7.00;;;4.00;;
8871;SDS011;4472;52.092;9.820;2024-01-07T05:28:10;6.43;;;4.03;;
8871;SDS011;4472;52.092;9.820;2024-01-07T05:31:00;4.50;;;3.33;;
8871;SDS011;4472;52.092;9.820;2024-01-07T05:33:50;5.17;;;3.80;;
8871;SDS011;4472;52.092;9.820;2024-01-07T05:36:40;5.30;;;3.73;;
8871;SDS011;4472;52.092;9.820;2024-01-07T05:39:29;4.47;;;3.60;;
8871;SDS011;4472;52.092;9.820;2024-01-07T05:42:18;6.27;;;3.27;;
8871;SDS011;4472;52.092;9.820;2024-01-07T05:45:08;3.63;;;2.90;;
8871;SDS011;4472;52.092;9.820;2024-01-07T05:48:00;4.17;;;3.20;;
8871;SDS011;4472;52.092;9.820;2024-01-07T05:50:48;4.97;;;3.37;;
8871;SDS011;4472;52.092;9.820;2024-01-07T05:53:39;3.17;;;2.87;;
8871;SDS011;4472;52.092;9.820;2024-01-07T05:56:28;3.83;;;2.70;;
8871;SDS011;4472;52.092;9.820;2024-01-07T05:59:17;4.07;;;2.90;;
8871;SDS011;4472;52.092;9.820;2024-01-07T06:02:05;3.63;;;2.83;;
8871;SDS011;4472;52.092;9.820;2024-01-07T06:04:55;4.57;;;2.90;;
8871;SDS011;4472;52.092;9.820;2024-01-07T06:07:45;4.20;;;2.50;;
8871;SDS011;4472;52.092;9.820;2024-01-07T06:10:36;4.03;;;2.50;;
8871;SDS011;4472;52.092;9.820;2024-01-07T06:13:28;3.67;;;2.60;;
8871;SDS011;4472;52.092;9.820;2024-01-07T06:16:18;5.00;;;2.77;;
8871;SDS011;4472;52.092;9.820;2024-01-07T06:19:08;3.13;;;2.70;;
8871;SDS011;4472;52.092;9.820;2024-01-07T06:21:58;3.50;;;2.93;;
8871;SDS011;4472;52.092;9.820;2024-01-07T06:24:46;7.30;;;2.70;;
8871;SDS011;4472;52.092;9.820;2024-01-07T06:27:34;6.40;;;3.27;;
8871;SDS011;4472;52.092;9.820;2024-01-07T06:30:22;3.33;;;3.03;;
8871;SDS011;4472;52.092;9.820;2024-01-07T06:33:12;4.13;;;2.97;;
8871;SDS011;4472;52.092;9.820;2024-01-07T06:36:02;5.03;;;3.17;;
8871;SDS011;4472;52.092;9.820;2024-01-07T06:38:53;4.80;;;2.67;;
8871;SDS011;4472;52.092;9.820;2024-01-07T06:41:41;4.97;;;3.10;;
8871;SDS011;4472;52.092;9.820;2024-01-07T06:44:32;3.83;;;2.80;;
8871;SDS011;4472;52.092;9.820;2024-01-07T06:47:19;5.37;;;2.60;;
8871;SDS011;4472;52.092;9.820;2024-01-07T06:50:07;3.93;;;2.70;;
8871;SDS011;4472;52.092;9.820;2024-01-07T06:52:57;4.47;;;2.97;;
8871;SDS011;4472;52.092;9.820;2024-01-07T06:55:48;5.50;;;3.60;;
8871;SDS011;4472;52.092;9.820;2024-01-07T06:58:36;4.00;;;3.43;;
8871;SDS011;4472;52.092;9.820;2024-01-07T07:01:26;5.43;;;3.10;;
8871;SDS011;4472;52.092;9.820;2024-01-07T07:04:14;8.07;;;3.87;;
8871;SDS011;4472;52.092;9.820;2024-01-07T07:07:02;4.43;;;3.33;;
8871;SDS011;4472;52.092;9.820;2024-01-07T07:09:52;4.60;;;3.80;;
8871;SDS011;4472;52.092;9.820;2024-01-07T07:12:42;6.20;;;3.50;;
8871;SDS011;4472;52.092;9.820;2024-01-07T07:15:29;4.90;;;3.33;;
8871;SDS011;4472;52.092;9.820;2024-01-07T07:18:17;6.50;;;3.83;;
8871;SDS011;4472;52.092;9.820;2024-01-07T07:21:05;6.43;;;3.63;;
8871;SDS011;4472;52.092;9.820;2024-01-07T07:23:54;4.20;;;3.63;;
8871;SDS011;4472;52.092;9.820;2024-01-07T07:26:43;6.13;;;3.70;;
8871;SDS011;4472;52.092;9.820;2024-01-07T07:29:34;5.43;;;3.80;;
8871;SDS011;4472;52.092;9.820;2024-01-07T07:32:26;4.07;;;3.57;;
8871;SDS011;4472;52.092;9.820;2024-01-07T07:35:15;5.90;;;4.33;;
8871;SDS011;4472;52.092;9.820;2024-01-07T07:38:05;6.60;;;4.50;;
8871;SDS011;4472;52.092;9.820;2024-01-07T07:40:53;4.77;;;3.53;;
8871;SDS011;4472;52.092;9.820;2024-01-07T07:43:41;6.87;;;3.70;;
8871;SDS011;4472;52.092;9.820;2024-01-07T07:46:31;5.63;;;3.30;;
8871;SDS011;4472;52.092;9.820;2024-01-07T07:49:20;6.57;;;4.33;;
8871;SDS011;4472;52.092;9.820;2024-01-07T07:52:09;4.27;;;3.67;;
8871;SDS011;4472;52.092;9.820;2024-01-07T07:55:00;5.43;;;4.30;;
8871;SDS011;4472;52.092;9.820;2024-01-07T07:57:49;6.17;;;4.53;;
8871;SDS011;4472;52.092;9.820;2024-01-07T08:00:37;7.47;;;3.73;;
8871;SDS011;4472;52.092;9.820;2024-01-07T08:03:26;10.57;;;4.43;;
8871;SDS011;4472;52.092;9.820;2024-01-07T08:06:14;5.63;;;3.60;;
8871;SDS011;4472;52.092;9.820;2024-01-07T08:09:05;5.20;;;3.47;;
8871;SDS011;4472;52.092;9.820;2024-01-07T08:11:53;5.43;;;3.90;;
8871;SDS011;4472;52.092;9.820;2024-01-07T08:14:43;4.00;;;3.33;;
8871;SDS011;4472;52.092;9.820;2024-01-07T08:17:34;3.47;;;2.90;;
8871;SDS011;4472;52.092;9.820;2024-01-07T08:20:24;5.23;;;3.50;;
8871;SDS011;4472;52.092;9.820;2024-01-07T08:23:15;4.20;;;3.20;;
8871;SDS011;4472;52.092;9.820;2024-01-07T08:26:03;4.20;;;3.20;;
8871;SDS011;4472;52.092;9.820;2024-01-07T08:28:50;3.90;;;3.30;;
8871;SDS011;4472;52.092;9.820;2024-01-07T08:31:37;4.17;;;3.30;;
8871;SDS011;4472;52.092;9.820;2024-01-07T08:34:27;3.37;;;3.07;;
8871;SDS011;4472;52.092;9.820;2024-01-07T08:37:16;3.60;;;3.23;;
8871;SDS011;4472;52.092;9.820;2024-01-07T08:40:03;7.67;;;4.03;;
8871;SDS011;4472;52.092;9.820;2024-01-07T08:42:54;5.13;;;3.20;;
8871;SDS011;4472;52.092;9.820;2024-01-07T08:45:42;3.43;;;2.87;;
8871;SDS011;4472;52.092;9.820;2024-01-07T08:48:29;4.03;;;3.23;;
8871;SDS011;4472;52.092;9.820;2024-01-07T08:51:16;5.40;;;3.33;;
8871;SDS011;4472;52.092;9.820;2024-01-07T08:54:05;4.23;;;3.00;;
8871;SDS011;4472;52.092;9.820;2024-01-07T08:56:52;7.37;;;4.13;;
8871;SDS011;4472;52.092;9.820;2024-01-07T08:59:39;5.63;;;3.63;;
8871;SDS011;4472;52.092;9.820;2024-01-07T09:02:27;5.40;;;3.10;;
8871;SDS011;4472;52.092;9.820;2024-01-07T09:05:14;3.90;;;3.30;;
8871;SDS011;4472;52.092;9.820;2024-01-07T09:08:01;3.67;;;3.23;;
8871;SDS011;4472;52.092;9.820;2024-01-07T09:10:50;6.13;;;3.73;;
8871;SDS011;4472;52.092;9.820;2024-01-07T09:13:37;4.93;;;3.77;;
8871;SDS011;4472;52.092;9.820;2024-01-07T09:16:25;3.90;;;3.50;;
8871;SDS011;4472;52.092;9.820;2024-01-07T09:19:12;4.97;;;3.67;;
8871;SDS011;4472;52.092;9.820;2024-01-07T09:21:59;7.30;;;4.20;;
8871;SDS011;4472;52.092;9.820;2024-01-07T09:24:47;4.20;;;3.70;;
8871;SDS011;4472;52.092;9.820;2024-01-07T09:27:36;4.67;;;3.93;;
8871;SDS011;4472;52.092;9.820;2024-01-07T09:30:23;4.87;;;3.57;;
8871;SDS011;4472;52.092;9.820;2024-01-07T09:33:10;7.43;;;4.27;;
8871;SDS011;4472;52.092;9.820;2024-01-07T09:35:58;8.67;;;4.90;;
8871;SDS011;4472;52.092;9.820;2024-01-07T09:38:45;9.03;;;4.80;;
8871;SDS011;4472;52.092;9.820;2024-01-07T09:41:32;4.97;;;3.73;;
8871;SDS011;4472;52.092;9.820;2024-01-07T09:44:21;5.23;;;3.70;;
8871;SDS011;4472;52.092;9.820;2024-01-07T09:47:10;7.27;;;4.73;;
8871;SDS011;4472;52.092;9.820;2024-01-07T09:49:58;6.53;;;4.70;;
8871;SDS011;4472;52.092;9.820;2024-01-07T09:52:45;7.10;;;4.30;;
8871;SDS011;4472;52.092;9.820;2024-01-07T09:55:40;8.60;;;6.33;;
8871;SDS011;4472;52.092;9.820;2024-01-07T09:58:38;11.27;;;7.63;;
8871;SDS011;4472;52.092;9.820;2024-01-07T10:01:29;6.97;;;4.70;;
8871;SDS011;4472;52.092;9.820;2024-01-07T10:04:18;6.00;;;4.93;;
8871;SDS011;4472;52.092;9.820;2024-01-07T10:07:05;5.40;;;4.10;;
8871;SDS011;4472;52.092;9.820;2024-01-07T10:09:53;7.77;;;3.90;;
8871;SDS011;4472;52.092;9.820;2024-01-07T10:12:41;7.07;;;5.03;;
8871;SDS011;4472;52.092;9.820;2024-01-07T10:15:31;7.77;;;4.20;;
8871;SDS011;4472;52.092;9.820;2024-01-07T10:18:20;7.77;;;5.13;;
8871;SDS011;4472;52.092;9.820;2024-01-07T10:21:08;6.50;;;4.57;;
8871;SDS011;4472;52.092;9.820;2024-01-07T10:24:04;6.07;;;4.50;;
8871;SDS011;4472;52.092;9.820;2024-01-07T10:26:55;6.63;;;5.13;;
8871;SDS011;4472;52.092;9.820;2024-01-07T10:29:42;11.80;;;6.13;;
8871;SDS011;4472;52.092;9.820;2024-01-07T10:32:35;13.57;;;6.93;;
8871;SDS011;4472;52.092;9.820;2024-01-07T10:35:25;8.63;;;5.50;;
8871;SDS011;4472;52.092;9.820;2024-01-07T10:38:20;25.73;;;9.90;;
8871;SDS011;4472;52.092;9.820;2024-01-07T10:41:08;19.13;;;8.47;;
8871;SDS011;4472;52.092;9.820;2024-01-07T10:43:57;14.07;;;7.47;;
8871;SDS011;4472;52.092;9.820;2024-01-07T10:46:45;9.43;;;5.60;;
8871;SDS011;4472;52.092;9.820;2024-01-07T10:49:33;9.60;;;5.83;;
8871;SDS011;4472;52.092;9.820;2024-01-07T10:52:24;9.40;;;4.27;;
8871;SDS011;4472;52.092;9.820;2024-01-07T10:55:13;5.53;;;4.20;;
8871;SDS011;4472;52.092;9.820;2024-01-07T10:58:03;7.50;;;4.80;;
8871;SDS011;4472;52.092;9.820;2024-01-07T11:00:52;8.47;;;5.40;;
8871;SDS011;4472;52.092;9.820;2024-01-07T11:03:46;6.37;;;5.10;;
8871;SDS011;4472;52.092;9.820;2024-01-07T11:06:41;5.50;;;4.57;;
8871;SDS011;4472;52.092;9.820;2024-01-07T11:09:39;6.57;;;5.00;;
8871;SDS011;4472;52.092;9.820;2024-01-07T11:12:33;5.80;;;4.53;;
8871;SDS011;4472;52.092;9.820;2024-01-07T11:18:38;6.03;;;4.73;;
8871;SDS011;4472;52.092;9.820;2024-01-07T11:21:26;4.97;;;3.93;;
8871;SDS011;4472;52.092;9.820;2024-01-07T11:27:28;8.80;;;4.53;;
8871;SDS011;4472;52.092;9.820;2024-01-07T11:30:18;4.60;;;4.03;;
8871;SDS011;4472;52.092;9.820;2024-01-07T11:33:06;6.13;;;4.57;;
8871;SDS011;4472;52.092;9.820;2024-01-07T11:35:59;14.03;;;8.90;;
8871;SDS011;4472;52.092;9.820;2024-01-07T11:38:48;6.00;;;4.23;;
8871;SDS011;4472;52.092;9.820;2024-01-07T11:41:37;7.20;;;5.10;;
8871;SDS011;4472;52.092;9.820;2024-01-07T11:44:26;8.93;;;4.73;;
8871;SDS011;4472;52.092;9.820;2024-01-07T11:47:14;5.60;;;4.27;;
8871;SDS011;4472;52.092;9.820;2024-01-07T11:50:02;6.20;;;4.40;;
8871;SDS011;4472;52.092;9.820;2024-01-07T11:52:50;4.77;;;3.80;;
8871;SDS011;4472;52.092;9.820;2024-01-07T11:55:37;9.57;;;5.37;;
8871;SDS011;4472;52.092;9.820;2024-01-07T11:58:26;8.13;;;6.30;;
8871;SDS011;4472;52.092;9.820;2024-01-07T12:01:14;16.63;;;10.07;;
8871;SDS011;4472;52.092;9.820;2024-01-07T12:04:01;8.53;;;6.30;;
8871;SDS011;4472;52.092;9.820;2024-01-07T12:06:49;9.43;;;5.30;;
8871;SDS011;4472;52.092;9.820;2024-01-07T12:09:36;5.83;;;4.00;;
8871;SDS011;4472;52.092;9.820;2024-01-07T12:12:24;5.80;;;3.83;;
8871;SDS011;4472;52.092;9.820;2024-01-07T12:15:13;9.33;;;6.43;;
8871;SDS011;4472;52.092;9.820;2024-01-07T12:18:00;6.67;;;5.97;;
8871;SDS011;4472;52.092;9.820;2024-01-07T12:20:55;7.27;;;4.20;;
8871;SDS011;4472;52.092;9.820;2024-01-07T12:23:43;6.60;;;4.47;;
8871;SDS011;4472;52.092;9.820;2024-01-07T12:26:35;7.37;;;4.40;;
8871;SDS011;4472;52.092;9.820;2024-01-07T12:29:23;7.17;;;5.20;;
8871;SDS011;4472;52.092;9.820;2024-01-07T12:32:12;7.00;;;4.60;;
8871;SDS011;4472;52.092;9.820;2024-01-07T12:35:02;4.47;;;3.90;;
8871;SDS011;4472;52.092;9.820;2024-01-07T12:37:50;7.90;;;3.93;;
8871;SDS011;4472;52.092;9.820;2024-01-07T12:40:37;5.10;;;4.20;;
8871;SDS011;4472;52.092;9.820;2024-01-07T12:43:25;6.13;;;4.07;;
8871;SDS011;4472;52.092;9.820;2024-01-07T12:46:12;7.57;;;4.57;;
8871;SDS011;4472;52.092;9.820;2024-01-07T12:49:01;6.17;;;4.00;;
8871;SDS011;4472;52.092;9.820;2024-01-07T12:51:48;6.40;;;4.30;;
8871;SDS011;4472;52.092;9.820;2024-01-07T12:54:36;6.43;;;4.03;;
8871;SDS011;4472;52.092;9.820;2024-01-07T12:57:24;5.43;;;4.00;;
8871;SDS011;4472;52.092;9.820;2024-01-07T13:00:12;9.97;;;5.30;;
8871;SDS011;4472;52.092;9.820;2024-01-07T13:03:00;4.70;;;3.57;;
8871;SDS011;4472;52.092;9.820;2024-01-07T13:05:49;3.83;;;3.40;;
8871;SDS011;4472;52.092;9.820;2024-01-07T13:08:36;7.77;;;5.00;;
8871;SDS011;4472;52.092;9.820;2024-01-07T13:11:24;9.03;;;5.07;;
8871;SDS011;4472;52.092;9.820;2024-01-07T13:14:11;11.83;;;6.80;;
8871;SDS011;4472;52.092;9.820;2024-01-07T13:16:58;5.63;;;4.27;;
8871;SDS011;4472;52.092;9.820;2024-01-07T13:19:45;15.90;;;9.70;;
8871;SDS011;4472;52.092;9.820;2024-01-07T13:22:34;13.00;;;7.10;;
8871;SDS011;4472;52.092;9.820;2024-01-07T13:25:21;32.30;;;13.57;;
8871;SDS011;4472;52.092;9.820;2024-01-07T13:28:09;21.23;;;10.00;;
8871;SDS011;4472;52.092;9.820;2024-01-07T13:30:56;7.10;;;4.93;;
8871;SDS011;4472;52.092;9.820;2024-01-07T13:33:43;9.33;;;4.77;;
8871;SDS011;4472;52.092;9.820;2024-01-07T13:36:32;5.07;;;4.03;;
8871;SDS011;4472;52.092;9.820;2024-01-07T13:39:20;21.40;;;10.67;;
8871;SDS011;4472;52.092;9.820;2024-01-07T13:42:07;12.50;;;7.40;;
8871;SDS011;4472;52.092;9.820;2024-01-07T13:44:55;10.33;;;6.50;;
8871;SDS011;4472;52.092;9.820;2024-01-07T13:47:43;8.60;;;5.57;;
8871;SDS011;4472;52.092;9.820;2024-01-07T13:50:30;16.63;;;8.00;;
8871;SDS011;4472;52.092;9.820;2024-01-07T13:53:18;11.00;;;6.20;;
8871;SDS011;4472;52.092;9.820;2024-01-07T13:56:06;8.33;;;5.20;;
8871;SDS011;4472;52.092;9.820;2024-01-07T13:58:54;6.93;;;4.10;;
8871;SDS011;4472;52.092;9.820;2024-01-07T14:01:41;4.83;;;3.57;;
8871;SDS011;4472;52.092;9.820;2024-01-07T14:04:29;4.03;;;3.20;;
8871;SDS011;4472;52.092;9.820;2024-01-07T14:07:17;3.93;;;3.17;;
8871;SDS011;4472;52.092;9.820;2024-01-07T14:10:07;4.57;;;3.67;;
8871;SDS011;4472;52.092;9.820;2024-01-07T14:12:56;6.87;;;3.90;;
8871;SDS011;4472;52.092;9.820;2024-01-07T14:15:43;47.30;;;29.70;;
8871;SDS011;4472;52.092;9.820;2024-01-07T14:18:30;7.57;;;5.53;;
8871;SDS011;4472;52.092;9.820;2024-01-07T14:21:17;9.47;;;6.60;;
8871;SDS011;4472;52.092;9.820;2024-01-07T14:24:05;6.00;;;3.90;;
8871;SDS011;4472;52.092;9.820;2024-01-07T14:26:53;3.93;;;3.53;;
8871;SDS011;4472;52.092;9.820;2024-01-07T14:29:44;6.53;;;3.37;;
8871;SDS011;4472;52.092;9.820;2024-01-07T14:32:32;5.87;;;2.97;;
8871;SDS011;4472;52.092;9.820;2024-01-07T14:35:21;4.53;;;4.03;;
8871;SDS011;4472;52.092;9.820;2024-01-07T14:38:11;4.33;;;3.67;;
8871;SDS011;4472;52.092;9.820;2024-01-07T14:40:59;4.53;;;3.50;;
8871;SDS011;4472;52.092;9.820;2024-01-07T14:43:46;4.53;;;3.90;;
8871;SDS011;4472;52.092;9.820;2024-01-07T14:46:35;4.20;;;3.50;;
8871;SDS011;4472;52.092;9.820;2024-01-07T14:49:22;5.03;;;3.90;;
8871;SDS011;4472;52.092;9.820;2024-01-07T14:52:10;4.60;;;2.80;;
8871;SDS011;4472;52.092;9.820;2024-01-07T14:54:57;3.97;;;2.90;;
8871;SDS011;4472;52.092;9.820;2024-01-07T14:57:44;7.50;;;3.60;;
8871;SDS011;4472;52.092;9.820;2024-01-07T15:00:31;5.53;;;4.10;;
8871;SDS011;4472;52.092;9.820;2024-01-07T15:03:20;7.37;;;4.67;;
8871;SDS011;4472;52.092;9.820;2024-01-07T15:06:08;7.73;;;5.13;;
8871;SDS011;4472;52.092;9.820;2024-01-07T15:08:56;11.43;;;6.47;;
8871;SDS011;4472;52.092;9.820;2024-01-07T15:11:44;7.27;;;5.10;;
8871;SDS011;4472;52.092;9.820;2024-01-07T15:14:33;14.07;;;6.07;;
8871;SDS011;4472;52.092;9.820;2024-01-07T15:17:22;12.67;;;6.50;;
8871;SDS011;4472;52.092;9.820;2024-01-07T15:20:12;18.23;;;8.30;;
8871;SDS011;4472;52.092;9.820;2024-01-07T15:23:00;8.70;;;5.10;;
8871;SDS011;4472;52.092;9.820;2024-01-07T15:25:48;13.73;;;6.73;;
8871;SDS011;4472;52.092;9.820;2024-01-07T15:28:35;15.27;;;6.80;;
8871;SDS011;4472;52.092;9.820;2024-01-07T15:31:22;22.00;;;9.13;;
8871;SDS011;4472;52.092;9.820;2024-01-07T15:34:11;13.57;;;7.07;;
8871;SDS011;4472;52.092;9.820;2024-01-07T15:37:00;7.67;;;4.63;;
8871;SDS011;4472;52.092;9.820;2024-01-07T15:39:47;12.83;;;6.37;;
8871;SDS011;4472;52.092;9.820;2024-01-07T15:42:37;10.83;;;5.33;;
8871;SDS011;4472;52.092;9.820;2024-01-07T15:45:24;7.83;;;4.93;;
8871;SDS011;4472;52.092;9.820;2024-01-07T15:48:12;7.37;;;4.00;;
8871;SDS011;4472;52.092;9.820;2024-01-07T15:51:00;4.30;;;3.40;;
8871;SDS011;4472;52.092;9.820;2024-01-07T15:53:49;4.83;;;3.50;;
8871;SDS011;4472;52.092;9.820;2024-01-07T15:56:36;5.20;;;4.17;;
8871;SDS011;4472;52.092;9.820;2024-01-07T15:59:23;4.10;;;3.67;;
8871;SDS011;4472;52.092;9.820;2024-01-07T16:02:11;5.77;;;3.33;;
8871;SDS011;4472;52.092;9.820;2024-01-07T16:04:58;4.83;;;3.87;;
8871;SDS011;4472;52.092;9.820;2024-01-07T16:07:45;8.23;;;5.00;;
8871;SDS011;4472;52.092;9.820;2024-01-07T16:10:34;6.30;;;4.20;;
8871;SDS011;4472;52.092;9.820;2024-01-07T16:13:21;6.40;;;4.43;;
8871;SDS011;4472;52.092;9.820;2024-01-07T16:16:08;8.03;;;5.60;;
8871;SDS011;4472;52.092;9.820;2024-01-07T16:18:56;9.67;;;6.20;;
8871;SDS011;4472;52.092;9.820;2024-01-07T16:21:43;9.07;;;5.60;;
8871;SDS011;4472;52.092;9.820;2024-01-07T16:24:31;14.67;;;8.30;;
8871;SDS011;4472;52.092;9.820;2024-01-07T16:27:20;16.83;;;9.00;;
8871;SDS011;4472;52.092;9.820;2024-01-07T16:30:08;8.93;;;5.93;;
8871;SDS011;4472;52.092;9.820;2024-01-07T16:32:58;7.40;;;4.83;;
8871;SDS011;4472;52.092;9.820;2024-01-07T16:35:45;4.93;;;4.20;;
8871;SDS011;4472;52.092;9.820;2024-01-07T16:38:33;8.53;;;4.03;;
8871;SDS011;4472;52.092;9.820;2024-01-07T16:41:23;10.33;;;5.00;;
8871;SDS011;4472;52.092;9.820;2024-01-07T16:44:12;8.47;;;6.00;;
8871;SDS011;4472;52.092;9.820;2024-01-07T16:46:59;7.47;;;5.00;;
8871;SDS011;4472;52.092;9.820;2024-01-07T16:49:46;9.63;;;4.80;;
8871;SDS011;4472;52.092;9.820;2024-01-07T16:52:33;5.47;;;3.87;;
8871;SDS011;4472;52.092;9.820;2024-01-07T16:55:21;4.80;;;3.77;;
8871;SDS011;4472;52.092;9.820;2024-01-07T16:58:08;4.10;;;3.13;;
8871;SDS011;4472;52.092;9.820;2024-01-07T17:00:57;4.93;;;3.77;;
8871;SDS011;4472;52.092;9.820;2024-01-07T17:03:44;4.33;;;3.23;;
8871;SDS011;4472;52.092;9.820;2024-01-07T17:06:31;4.67;;;3.43;;
8871;SDS011;4472;52.092;9.820;2024-01-07T17:09:19;4.57;;;3.50;;
8871;SDS011;4472;52.092;9.820;2024-01-07T17:12:09;5.80;;;3.53;;
8871;SDS011;4472;52.092;9.820;2024-01-07T17:14:57;5.47;;;3.80;;
8871;SDS011;4472;52.092;9.820;2024-01-07T17:17:45;5.13;;;3.70;;
8871;SDS011;4472;52.092;9.820;2024-01-07T17:20:33;5.30;;;3.50;;
8871;SDS011;4472;52.092;9.820;2024-01-07T17:23:20;5.87;;;3.40;;
8871;SDS011;4472;52.092;9.820;2024-01-07T17:26:08;4.90;;;3.23;;
8871;SDS011;4472;52.092;9.820;2024-01-07T17:28:55;3.60;;;3.27;;
8871;SDS011;4472;52.092;9.820;2024-01-07T17:31:43;4.20;;;3.00;;